Terminal Aerodrome Forecast
Issued by NWS

Home | Current Version | Previous Version | Text Only | Print | Product List | Glossary On
Versions: 1 2 3 4 5 6 7 8 9 10 11 12 13 14
000
FTUS45 KPSR 232320
TAFIPL
TAF
KIPL 232320Z 2400/2424 25011KT P6SM SKC
     FM240200 26013G26KT P6SM SKC
     FM240700 27010KT P6SM SKC=

USA.gov is the U.S. government's official web portal to all federal, state and local government web resources and services.